createdAt,value
2022-09-23T00:06:22.551Z,7.40
2022-09-23T00:11:25.437Z,7.60
2022-09-23T00:13:57.534Z,7.30
2022-09-23T00:16:35.027Z,7.30
2022-09-23T00:19:05.547Z,7.10
2022-09-23T00:31:27.425Z,7.40
2022-09-23T00:34:01.607Z,7.60
2022-09-23T00:36:30.453Z,7.60
2022-09-23T00:41:26.662Z,7.40
2022-09-23T00:43:58.524Z,8.40
2022-09-23T00:49:30.588Z,7.20
2022-09-23T00:52:11.425Z,8.90
2022-09-23T00:57:07.144Z,7.10
2022-09-23T01:12:31.157Z,7.10
2022-09-23T01:15:32.610Z,7.10
2022-09-23T01:18:31.250Z,7.60
2022-09-23T01:21:39.489Z,7.10
2022-09-23T01:24:32.751Z,6.90
2022-09-23T01:27:19.469Z,7.10
2022-09-23T01:30:17.037Z,7.50
2022-09-23T01:33:10.159Z,6.80
2022-09-23T01:38:38.339Z,7.00
2022-09-23T01:42:03.765Z,6.60
2022-09-23T01:44:53.335Z,7.10
2022-09-23T01:47:36.475Z,6.90
2022-09-23T01:50:50.407Z,6.80
2022-09-23T01:53:46.169Z,7.60
2022-09-23T01:56:31.350Z,6.70
2022-09-23T01:59:41.741Z,7.20
2022-09-23T02:05:02.639Z,7.60
2022-09-23T02:10:24.144Z,6.70
2022-09-23T02:13:02.007Z,6.70
2022-09-23T02:15:38.209Z,6.60
2022-09-23T02:18:24.932Z,6.40
2022-09-23T02:20:59.149Z,6.50
2022-09-23T02:23:52.315Z,6.50
2022-09-23T02:26:27.007Z,6.50
2022-09-23T02:29:21.732Z,7.80
2022-09-23T02:32:18.123Z,6.70
2022-09-23T02:35:03.376Z,6.30
2022-09-23T02:38:15.621Z,6.70
2022-09-23T02:41:01.225Z,6.30
2022-09-23T02:43:40.541Z,6.10
2022-09-23T02:48:46.574Z,6.40
2022-09-23T02:56:21.391Z,6.20
2022-09-23T02:58:56.035Z,6.50
2022-09-23T03:01:46.694Z,6.00
2022-09-23T03:05:12.781Z,5.90
2022-09-23T03:08:19.480Z,6.00
2022-09-23T03:10:56.302Z,6.50
2022-09-23T03:13:47.764Z,6.00
2022-09-23T03:16:43.658Z,6.20
2022-09-23T03:19:25.779Z,6.10
2022-09-23T03:22:18.555Z,6.10
2022-09-23T03:24:53.738Z,5.90
2022-09-23T03:27:28.105Z,5.70
2022-09-23T03:29:57.024Z,5.80
2022-09-23T03:32:28.211Z,6.00
2022-09-23T03:34:59.002Z,5.80
2022-09-23T03:37:51.278Z,6.40
2022-09-23T03:40:30.195Z,5.90
2022-09-23T03:42:58.989Z,5.80
2022-09-23T03:45:34.527Z,5.50
2022-09-23T04:15:09.430Z,6.00
2022-09-23T04:22:34.365Z,5.40
2022-09-23T04:59:41.055Z,5.60
2022-09-23T05:26:45.863Z,10.20
2022-09-23T05:29:13.859Z,9.90
2022-09-23T05:31:41.478Z,9.50
2022-09-23T05:36:38.982Z,11.10
2022-09-23T05:39:08.454Z,12.50
2022-09-23T05:41:36.766Z,11.90
2022-09-23T05:44:04.473Z,12.90
2022-09-23T05:46:32.200Z,13.00
2022-09-23T05:49:02.954Z,14.20
2022-09-23T05:54:04.376Z,14.20
2022-09-23T05:56:33.576Z,14.70
2022-09-23T05:59:02.536Z,16.30
2022-09-23T06:01:34.213Z,15.70
2022-09-23T06:04:05.533Z,16.00
2022-09-23T06:06:42.799Z,15.60
2022-09-23T06:09:15.301Z,16.30
2022-09-23T06:11:42.906Z,15.30
2022-09-23T06:14:13.907Z,15.60
2022-09-23T06:16:41.111Z,15.40
2022-09-23T06:21:40.509Z,16.40
2022-09-23T06:24:09.709Z,16.70
2022-09-23T06:26:38.388Z,15.80
2022-09-23T06:29:14.690Z,15.00
2022-09-23T06:31:42.141Z,15.40
2022-09-23T06:34:14.558Z,16.20
2022-09-23T06:36:46.409Z,18.90
2022-09-23T06:39:17.124Z,19.00
2022-09-23T06:41:45.523Z,19.50
2022-09-23T06:44:14.147Z,20.70
2022-09-23T06:49:08.986Z,20.10
2022-09-23T06:54:04.098Z,20.40
2022-09-23T06:56:34.876Z,20.90
2022-09-23T07:01:34.906Z,22.10
2022-09-23T07:06:29.633Z,22.40
2022-09-23T07:13:51.574Z,21.80
2022-09-23T07:16:18.657Z,22.10
2022-09-23T07:21:17.647Z,22.00
2022-09-23T07:23:50.451Z,23.00
2022-09-23T07:26:19.812Z,22.50
2022-09-23T07:31:30.018Z,21.90
2022-09-23T07:39:03.931Z,22.40
2022-09-23T07:41:33.786Z,24.40
2022-09-23T07:44:01.892Z,24.40
2022-09-23T07:46:33.437Z,24.10
2022-09-23T07:49:02.113Z,24.00
2022-09-23T07:51:36.777Z,24.60
2022-09-23T07:54:12.157Z,25.80
2022-09-23T07:56:40.430Z,25.00
2022-09-23T07:59:11.699Z,24.50
2022-09-23T08:01:45.266Z,23.90
2022-09-23T08:04:23.786Z,22.80
2022-09-23T08:06:56.035Z,22.50
2022-09-23T08:09:31.962Z,21.40
2022-09-23T08:16:54.654Z,23.00
2022-09-23T08:19:21.723Z,24.00
2022-09-23T08:24:21.009Z,24.00
2022-09-23T08:26:49.112Z,22.70
2022-09-23T08:29:18.887Z,22.60
2022-09-23T08:39:15.468Z,23.90
2022-09-23T08:42:07.482Z,24.40
2022-09-23T08:45:12.860Z,24.80
2022-09-23T08:48:14.121Z,25.00
2022-09-23T08:50:50.326Z,24.70
2022-09-23T08:55:58.206Z,25.00
2022-09-23T08:59:12.432Z,25.20
2022-09-23T09:01:42.110Z,24.20
2022-09-23T09:04:23.486Z,26.00
2022-09-23T09:07:24.585Z,26.10
2022-09-23T09:10:17.229Z,26.30
2022-09-23T09:12:52.605Z,27.00
2022-09-23T09:15:29.289Z,24.50
2022-09-23T09:20:41.595Z,24.60
2022-09-23T09:23:11.634Z,24.40
2022-09-23T09:25:41.704Z,24.70
2022-09-23T09:28:31.053Z,24.80
2022-09-23T09:31:05.455Z,24.70
2022-09-23T09:34:13.376Z,24.60
2022-09-23T09:37:00.427Z,24.40
2022-09-23T09:41:59.654Z,26.40
2022-09-23T09:44:40.776Z,25.50
2022-09-23T09:47:46.828Z,24.30
2022-09-23T09:50:22.156Z,24.10
2022-09-23T09:55:29.083Z,24.00
2022-09-23T09:58:04.159Z,24.20
2022-09-23T10:03:03.640Z,23.90
2022-09-23T10:05:46.798Z,23.40
2022-09-23T10:08:37.587Z,24.90
2022-09-23T10:11:09.262Z,23.80
2022-09-23T10:16:05.886Z,26.50
2022-09-23T10:19:00.818Z,24.60
2022-09-23T10:21:36.432Z,23.40
2022-09-23T10:24:07.757Z,22.80
2022-09-23T10:26:51.313Z,22.30
2022-09-23T10:29:47.718Z,21.70
2022-09-23T10:32:28.517Z,21.50
2022-09-23T10:35:17.890Z,21.10
2022-09-23T10:37:50.055Z,20.00
2022-09-23T10:40:50.892Z,21.20
2022-09-23T10:43:47.359Z,21.20
2022-09-23T10:47:01.453Z,21.30
2022-09-23T10:49:59.146Z,20.90
2022-09-23T10:53:11.902Z,19.70
2022-09-23T10:56:15.456Z,21.80
2022-09-23T10:58:54.421Z,20.10
2022-09-23T11:02:15.049Z,20.50
2022-09-23T11:05:55.445Z,20.80
2022-09-23T11:08:51.729Z,21.70
2022-09-23T11:11:46.411Z,21.20
2022-09-23T11:14:54.326Z,20.10
2022-09-23T11:17:27.352Z,21.70
2022-09-23T11:20:11.977Z,22.20
2022-09-23T11:26:04.588Z,21.50
2022-09-23T11:28:54.132Z,21.80
2022-09-23T11:31:57.368Z,21.90
2022-09-23T11:34:57.161Z,22.10
2022-09-23T11:37:35.566Z,24.10
2022-09-23T11:40:19.156Z,22.50
2022-09-23T11:43:15.703Z,23.50
2022-09-23T11:46:01.205Z,22.80
2022-09-23T11:48:37.345Z,23.30
2022-09-23T11:51:19.346Z,23.30
2022-09-23T11:54:23.421Z,22.60
2022-09-23T11:57:06.335Z,22.80
2022-09-23T11:59:50.013Z,22.10
2022-09-23T12:02:42.374Z,23.10
2022-09-23T12:05:22.214Z,24.40
2022-09-23T12:08:09.235Z,23.30
2022-09-23T12:10:57.858Z,21.90
2022-09-23T12:14:23.747Z,22.00
2022-09-23T12:17:31.044Z,21.90
2022-09-23T12:20:28.783Z,21.60
2022-09-23T12:23:29.329Z,22.00
2022-09-23T12:26:07.911Z,21.70
2022-09-23T12:28:47.219Z,21.50
2022-09-23T12:31:19.827Z,21.00
2022-09-23T12:33:54.924Z,20.50
2022-09-23T12:36:35.504Z,21.00
2022-09-23T12:39:15.283Z,21.20
2022-09-23T12:41:48.824Z,21.20
2022-09-23T12:44:36.713Z,21.30
2022-09-23T12:47:25.145Z,21.00
2022-09-23T12:49:53.480Z,21.20
2022-09-23T12:55:26.072Z,20.70
2022-09-23T13:00:22.614Z,20.10
2022-09-23T13:03:12.424Z,20.60
2022-09-23T13:06:18.995Z,20.00
2022-09-23T13:11:30.210Z,19.60
2022-09-23T13:14:04.010Z,20.80
2022-09-23T13:16:46.392Z,20.20
2022-09-23T13:19:38.600Z,19.90
2022-09-23T13:22:58.786Z,20.00
2022-09-23T13:25:29.658Z,19.90
2022-09-23T13:28:02.297Z,19.70
2022-09-23T13:33:31.489Z,20.20
2022-09-23T13:36:04.851Z,19.50
2022-09-23T13:38:33.079Z,19.60
2022-09-23T13:41:28.673Z,19.60
2022-09-23T13:43:59.731Z,20.20
2022-09-23T13:46:34.082Z,19.30
2022-09-23T13:49:02.818Z,19.00
2022-09-23T13:51:37.170Z,19.20
2022-09-23T13:54:05.601Z,18.20
2022-09-23T13:56:36.616Z,18.80
2022-09-23T13:59:30.495Z,19.70
2022-09-23T14:02:20.179Z,19.20
2022-09-23T14:07:19.089Z,18.00
2022-09-23T14:09:54.569Z,18.90
2022-09-23T14:12:24.737Z,19.20
2022-09-23T14:14:53.043Z,18.90
2022-09-23T14:17:23.146Z,19.00
2022-09-23T14:19:51.525Z,19.20
2022-09-23T14:22:28.222Z,19.00
2022-09-23T14:24:57.199Z,18.90
2022-09-23T14:27:34.065Z,18.80
2022-09-23T14:30:04.199Z,19.30
2022-09-23T14:34:59.905Z,18.80
2022-09-23T14:37:56.908Z,18.50
2022-09-23T14:40:33.966Z,18.60
2022-09-23T14:43:17.282Z,18.70
2022-09-23T14:45:50.575Z,18.80
2022-09-23T14:48:29.968Z,19.00
2022-09-23T14:51:00.602Z,18.50
2022-09-23T14:53:43.293Z,18.30
2022-09-23T14:56:15.406Z,18.00
2022-09-23T14:58:58.089Z,18.60
2022-09-23T15:01:31.293Z,18.30
2022-09-23T15:04:22.739Z,19.00
2022-09-23T15:09:37.350Z,18.90
2022-09-23T15:12:15.382Z,18.60
2022-09-23T15:14:50.987Z,17.50
2022-09-23T15:19:57.759Z,17.60
2022-09-23T15:22:26.366Z,18.00
2022-09-23T15:25:11.232Z,18.90
2022-09-23T15:30:19.553Z,17.80
2022-09-23T15:32:47.443Z,17.80
2022-09-23T15:35:23.751Z,19.00
2022-09-23T15:37:51.846Z,18.50
2022-09-23T15:40:31.267Z,16.60
2022-09-23T15:43:02.408Z,17.50
2022-09-23T15:45:36.075Z,17.30
2022-09-23T15:48:11.376Z,17.40
2022-09-23T15:50:40.456Z,18.20
2022-09-23T15:53:07.792Z,16.70
2022-09-23T15:55:35.283Z,16.70
2022-09-23T16:03:06.844Z,16.50
2022-09-23T16:05:37.972Z,16.20
2022-09-23T16:08:09.266Z,18.10
2022-09-23T16:10:37.539Z,16.10
2022-09-23T16:13:11.733Z,16.40
2022-09-23T16:15:39.795Z,16.60
2022-09-23T16:18:09.457Z,16.50
2022-09-23T16:20:43.237Z,17.00
2022-09-23T16:23:38.754Z,15.80
2022-09-23T16:26:25.882Z,16.00
2022-09-23T16:28:56.444Z,16.10
2022-09-23T16:31:25.929Z,15.80
2022-09-23T16:33:54.297Z,16.40
2022-09-23T16:36:35.164Z,16.50
2022-09-23T16:39:10.927Z,15.50
2022-09-23T16:41:38.405Z,16.20
2022-09-23T16:44:08.450Z,15.60
2022-09-23T16:46:36.017Z,15.90
2022-09-23T16:51:40.904Z,16.30
2022-09-23T16:54:13.236Z,14.90
2022-09-23T16:56:46.406Z,14.80
2022-09-23T16:59:16.170Z,15.60
2022-09-23T17:04:33.489Z,14.20
2022-09-23T17:07:00.637Z,14.80
2022-09-23T17:09:30.475Z,15.20
2022-09-23T17:12:18.684Z,14.50
2022-09-23T17:14:45.950Z,15.20
2022-09-23T17:24:38.728Z,13.10
2022-09-23T17:29:34.391Z,13.20
2022-09-23T17:34:30.067Z,13.40
2022-09-23T17:39:25.382Z,12.30
2022-09-23T17:44:25.417Z,13.10
2022-09-23T17:51:51.399Z,14.10
2022-09-23T17:54:18.844Z,13.30
2022-09-23T17:59:16.734Z,13.90
2022-09-23T18:04:12.610Z,12.10
2022-09-23T18:06:39.883Z,12.80
2022-09-23T18:09:08.981Z,12.10
2022-09-23T18:11:43.399Z,12.20
2022-09-23T18:14:21.454Z,12.30
2022-09-23T18:16:54.314Z,12.10
2022-09-23T18:19:24.845Z,12.70
2022-09-23T18:21:56.600Z,12.40
2022-09-23T18:24:32.475Z,12.30
2022-09-23T18:27:01.971Z,12.40
2022-09-23T18:29:32.136Z,12.90
2022-09-23T18:34:29.266Z,11.70
2022-09-23T18:37:00.103Z,11.60
2022-09-23T18:44:25.903Z,11.40
2022-09-23T18:46:53.674Z,11.50
2022-09-23T18:49:39.998Z,11.00
2022-09-23T18:54:39.379Z,11.70
2022-09-23T18:59:41.911Z,11.20
2022-09-23T19:07:07.262Z,10.70
2022-09-23T19:09:35.358Z,11.80
2022-09-23T19:12:03.819Z,11.20
2022-09-23T19:14:32.852Z,11.50
2022-09-23T19:17:00.487Z,10.50
2022-09-23T19:21:58.786Z,10.80
2022-09-23T19:24:26.347Z,11.70
2022-09-23T19:26:55.222Z,10.80
2022-09-23T19:29:25.944Z,10.80
2022-09-23T19:36:58.658Z,11.10
2022-09-23T19:39:32.518Z,11.80
2022-09-23T19:41:59.624Z,10.20
2022-09-23T19:44:27.837Z,10.50
2022-09-23T19:46:57.437Z,10.40
2022-09-23T19:49:26.109Z,13.70
2022-09-23T19:51:55.968Z,10.00
2022-09-23T19:54:26.954Z,10.30
2022-09-23T19:56:54.917Z,10.70
2022-09-23T20:01:49.885Z,10.90
2022-09-23T20:04:17.564Z,10.60
2022-09-23T20:09:13.784Z,10.40
2022-09-23T20:14:12.062Z,9.90
2022-09-23T20:19:09.929Z,9.50
2022-09-23T20:21:37.980Z,9.70
2022-09-23T20:24:07.910Z,10.70
2022-09-23T20:29:21.457Z,9.20
2022-09-23T20:31:49.325Z,9.40
2022-09-23T20:34:16.476Z,8.90
2022-09-23T20:36:43.739Z,9.70
2022-09-23T20:39:11.548Z,9.10
2022-09-23T20:41:39.792Z,9.50
2022-09-23T20:44:14.147Z,9.30
2022-09-23T20:46:48.528Z,8.80
2022-09-23T20:49:20.954Z,9.80
2022-09-23T20:51:49.181Z,9.30
2022-09-23T20:54:20.039Z,9.10
2022-09-23T20:56:48.557Z,9.10
2022-09-23T20:59:17.861Z,9.10
2022-09-23T21:06:41.478Z,9.10
2022-09-23T21:09:09.182Z,9.30
2022-09-23T21:11:36.409Z,9.00
2022-09-23T21:14:03.846Z,9.40
2022-09-23T21:16:31.230Z,9.10
2022-09-23T21:18:58.833Z,8.70
2022-09-23T21:21:26.835Z,8.80
2022-09-23T21:26:28.470Z,8.30
2022-09-23T21:29:00.046Z,8.40
2022-09-23T21:31:38.978Z,8.20
2022-09-23T21:34:14.624Z,8.70
2022-09-23T21:36:44.688Z,8.20
2022-09-23T21:39:14.084Z,8.10
2022-09-23T21:44:09.534Z,8.70
2022-09-23T21:46:37.948Z,8.60
2022-09-23T21:49:05.835Z,8.00
2022-09-23T21:51:40.794Z,8.00
2022-09-23T21:54:14.542Z,8.00
2022-09-23T21:56:44.674Z,8.10
2022-09-23T21:59:12.487Z,8.20
2022-09-23T22:01:44.709Z,8.20
2022-09-23T22:04:17.311Z,7.50
2022-09-23T22:06:45.594Z,7.90
2022-09-23T22:09:17.774Z,7.80
2022-09-23T22:14:32.238Z,8.20
2022-09-23T22:17:02.327Z,7.80
2022-09-23T22:19:35.491Z,7.70
2022-09-23T22:22:13.405Z,7.90
2022-09-23T22:24:45.291Z,7.70
2022-09-23T22:27:15.591Z,7.70
2022-09-23T22:35:17.964Z,7.40
2022-09-23T22:37:46.373Z,8.30
2022-09-23T22:40:16.353Z,8.70
2022-09-23T22:42:44.470Z,7.60
2022-09-23T22:45:13.258Z,7.40
2022-09-23T22:47:45.678Z,7.60
2022-09-23T22:50:14.792Z,7.80
2022-09-23T22:55:10.135Z,7.40
2022-09-23T23:00:07.301Z,7.40
2022-09-23T23:09:58.381Z,7.20
2022-09-23T23:12:25.882Z,7.60
2022-09-23T23:17:21.887Z,7.30
2022-09-23T23:27:13.242Z,8.10
2022-09-23T23:29:40.626Z,7.10
2022-09-23T23:32:09.982Z,7.90
2022-09-23T23:39:33.856Z,7.70
2022-09-23T23:42:00.949Z,6.80
2022-09-23T23:44:31.264Z,6.70
2022-09-23T23:56:51.298Z,7.20
